sensor_id;sensor_type;location;lat;lon;timestamp;P1;durP1;ratioP1;P2;durP2;ratioP2
61635;SDS011;59438;45.014;39.006;2023-01-19T00:00:19;17.98;;;9.00;;
61635;SDS011;59438;45.014;39.006;2023-01-19T00:02:45;19.48;;;9.55;;
61635;SDS011;59438;45.014;39.006;2023-01-19T00:05:11;20.33;;;9.23;;
61635;SDS011;59438;45.014;39.006;2023-01-19T00:07:38;22.17;;;10.20;;
61635;SDS011;59438;45.014;39.006;2023-01-19T00:10:05;22.45;;;9.32;;
61635;SDS011;59438;45.014;39.006;2023-01-19T00:12:32;26.50;;;9.68;;
61635;SDS011;59438;45.014;39.006;2023-01-19T00:14:59;19.75;;;9.88;;
61635;SDS011;59438;45.014;39.006;2023-01-19T00:17:27;18.40;;;8.80;;
61635;SDS011;59438;45.014;39.006;2023-01-19T00:19:53;22.30;;;10.23;;
61635;SDS011;59438;45.014;39.006;2023-01-19T00:22:19;20.45;;;9.45;;
61635;SDS011;59438;45.014;39.006;2023-01-19T00:24:46;20.52;;;9.32;;
61635;SDS011;59438;45.014;39.006;2023-01-19T00:27:12;19.45;;;9.50;;
61635;SDS011;59438;45.014;39.006;2023-01-19T00:29:39;20.95;;;10.27;;
61635;SDS011;59438;45.014;39.006;2023-01-19T00:32:05;21.42;;;10.40;;
61635;SDS011;59438;45.014;39.006;2023-01-19T00:34:33;20.55;;;9.30;;
61635;SDS011;59438;45.014;39.006;2023-01-19T00:36:59;22.58;;;9.48;;
61635;SDS011;59438;45.014;39.006;2023-01-19T00:39:25;24.02;;;9.40;;
61635;SDS011;59438;45.014;39.006;2023-01-19T00:41:52;22.38;;;9.95;;
61635;SDS011;59438;45.014;39.006;2023-01-19T00:44:18;23.40;;;9.88;;
61635;SDS011;59438;45.014;39.006;2023-01-19T00:46:44;29.10;;;10.25;;
61635;SDS011;59438;45.014;39.006;2023-01-19T00:49:11;19.10;;;10.30;;
61635;SDS011;59438;45.014;39.006;2023-01-19T00:51:39;21.58;;;10.30;;
61635;SDS011;59438;45.014;39.006;2023-01-19T00:54:05;21.65;;;10.63;;
61635;SDS011;59438;45.014;39.006;2023-01-19T00:56:31;25.50;;;10.38;;
61635;SDS011;59438;45.014;39.006;2023-01-19T00:58:58;22.20;;;10.48;;
61635;SDS011;59438;45.014;39.006;2023-01-19T01:01:25;21.15;;;10.30;;
61635;SDS011;59438;45.014;39.006;2023-01-19T01:03:51;24.55;;;10.98;;
61635;SDS011;59438;45.014;39.006;2023-01-19T01:06:17;26.83;;;11.35;;
61635;SDS011;59438;45.014;39.006;2023-01-19T01:08:45;19.40;;;10.15;;
61635;SDS011;59438;45.014;39.006;2023-01-19T01:11:12;21.40;;;10.02;;
61635;SDS011;59438;45.014;39.006;2023-01-19T01:13:38;24.52;;;10.45;;
61635;SDS011;59438;45.014;39.006;2023-01-19T01:16:05;23.70;;;10.23;;
61635;SDS011;59438;45.014;39.006;2023-01-19T01:18:32;23.88;;;10.57;;
61635;SDS011;59438;45.014;39.006;2023-01-19T01:21:01;25.27;;;9.80;;
61635;SDS011;59438;45.014;39.006;2023-01-19T01:23:28;23.70;;;10.38;;
61635;SDS011;59438;45.014;39.006;2023-01-19T01:25:56;24.55;;;10.20;;
61635;SDS011;59438;45.014;39.006;2023-01-19T01:28:23;21.33;;;10.20;;
61635;SDS011;59438;45.014;39.006;2023-01-19T01:30:51;19.90;;;10.10;;
61635;SDS011;59438;45.014;39.006;2023-01-19T01:33:18;20.17;;;9.82;;
61635;SDS011;59438;45.014;39.006;2023-01-19T01:35:44;24.58;;;9.88;;
61635;SDS011;59438;45.014;39.006;2023-01-19T01:38:11;26.00;;;10.77;;
61635;SDS011;59438;45.014;39.006;2023-01-19T01:40:38;18.98;;;9.63;;
61635;SDS011;59438;45.014;39.006;2023-01-19T01:43:08;24.25;;;10.18;;
61635;SDS011;59438;45.014;39.006;2023-01-19T01:45:36;26.23;;;10.73;;
61635;SDS011;59438;45.014;39.006;2023-01-19T01:48:05;18.98;;;9.55;;
61635;SDS011;59438;45.014;39.006;2023-01-19T01:50:36;22.17;;;10.05;;
61635;SDS011;59438;45.014;39.006;2023-01-19T01:53:06;20.83;;;9.60;;
61635;SDS011;59438;45.014;39.006;2023-01-19T01:55:36;22.75;;;9.50;;
61635;SDS011;59438;45.014;39.006;2023-01-19T01:58:13;20.25;;;9.70;;
61635;SDS011;59438;45.014;39.006;2023-01-19T02:00:41;23.02;;;10.23;;
61635;SDS011;59438;45.014;39.006;2023-01-19T02:03:07;20.88;;;9.52;;
61635;SDS011;59438;45.014;39.006;2023-01-19T02:05:34;19.63;;;9.45;;
61635;SDS011;59438;45.014;39.006;2023-01-19T02:08:02;22.65;;;9.68;;
61635;SDS011;59438;45.014;39.006;2023-01-19T02:10:32;17.77;;;9.13;;
61635;SDS011;59438;45.014;39.006;2023-01-19T02:12:59;21.77;;;9.63;;
61635;SDS011;59438;45.014;39.006;2023-01-19T02:15:26;18.63;;;9.35;;
61635;SDS011;59438;45.014;39.006;2023-01-19T02:17:53;18.48;;;9.43;;
61635;SDS011;59438;45.014;39.006;2023-01-19T02:20:19;18.77;;;9.07;;
61635;SDS011;59438;45.014;39.006;2023-01-19T02:22:49;21.95;;;9.60;;
61635;SDS011;59438;45.014;39.006;2023-01-19T02:25:18;21.77;;;9.88;;
61635;SDS011;59438;45.014;39.006;2023-01-19T02:27:45;17.15;;;9.27;;
61635;SDS011;59438;45.014;39.006;2023-01-19T02:30:12;17.23;;;8.93;;
61635;SDS011;59438;45.014;39.006;2023-01-19T02:32:39;19.77;;;9.52;;
61635;SDS011;59438;45.014;39.006;2023-01-19T02:35:06;16.92;;;9.25;;
61635;SDS011;59438;45.014;39.006;2023-01-19T02:37:33;20.63;;;9.50;;
61635;SDS011;59438;45.014;39.006;2023-01-19T02:40:02;20.20;;;9.27;;
61635;SDS011;59438;45.014;39.006;2023-01-19T02:42:32;25.00;;;9.07;;
61635;SDS011;59438;45.014;39.006;2023-01-19T02:45:03;19.60;;;9.07;;
61635;SDS011;59438;45.014;39.006;2023-01-19T02:47:35;20.45;;;9.15;;
61635;SDS011;59438;45.014;39.006;2023-01-19T02:50:02;20.55;;;9.80;;
61635;SDS011;59438;45.014;39.006;2023-01-19T02:52:29;21.00;;;9.73;;
61635;SDS011;59438;45.014;39.006;2023-01-19T02:54:58;22.35;;;9.50;;
61635;SDS011;59438;45.014;39.006;2023-01-19T02:57:47;21.05;;;8.73;;
61635;SDS011;59438;45.014;39.006;2023-01-19T03:00:26;24.02;;;10.02;;
61635;SDS011;59438;45.014;39.006;2023-01-19T03:03:07;21.38;;;10.20;;
61635;SDS011;59438;45.014;39.006;2023-01-19T03:05:47;25.30;;;10.30;;
61635;SDS011;59438;45.014;39.006;2023-01-19T03:08:21;24.92;;;9.38;;
61635;SDS011;59438;45.014;39.006;2023-01-19T03:10:57;21.00;;;9.43;;
61635;SDS011;59438;45.014;39.006;2023-01-19T03:13:30;21.52;;;9.70;;
61635;SDS011;59438;45.014;39.006;2023-01-19T03:16:05;22.83;;;9.85;;
61635;SDS011;59438;45.014;39.006;2023-01-19T03:18:38;23.13;;;9.60;;
61635;SDS011;59438;45.014;39.006;2023-01-19T03:21:08;20.05;;;9.77;;
61635;SDS011;59438;45.014;39.006;2023-01-19T03:23:37;20.50;;;9.82;;
61635;SDS011;59438;45.014;39.006;2023-01-19T03:26:10;21.17;;;9.38;;
61635;SDS011;59438;45.014;39.006;2023-01-19T03:28:41;20.25;;;9.23;;
61635;SDS011;59438;45.014;39.006;2023-01-19T03:31:11;23.00;;;9.65;;
61635;SDS011;59438;45.014;39.006;2023-01-19T03:33:42;24.45;;;9.45;;
61635;SDS011;59438;45.014;39.006;2023-01-19T03:36:13;20.35;;;8.85;;
61635;SDS011;59438;45.014;39.006;2023-01-19T03:38:44;20.90;;;9.02;;
61635;SDS011;59438;45.014;39.006;2023-01-19T03:41:13;21.50;;;9.98;;
61635;SDS011;59438;45.014;39.006;2023-01-19T03:43:45;21.45;;;9.98;;
61635;SDS011;59438;45.014;39.006;2023-01-19T03:46:13;22.73;;;8.98;;
61635;SDS011;59438;45.014;39.006;2023-01-19T03:48:41;23.77;;;9.65;;
61635;SDS011;59438;45.014;39.006;2023-01-19T03:51:08;25.65;;;9.60;;
61635;SDS011;59438;45.014;39.006;2023-01-19T03:53:35;20.42;;;9.23;;
61635;SDS011;59438;45.014;39.006;2023-01-19T03:56:02;23.92;;;9.23;;
61635;SDS011;59438;45.014;39.006;2023-01-19T03:58:28;20.20;;;9.38;;
61635;SDS011;59438;45.014;39.006;2023-01-19T04:00:56;22.90;;;8.98;;
61635;SDS011;59438;45.014;39.006;2023-01-19T04:03:22;22.00;;;9.00;;
61635;SDS011;59438;45.014;39.006;2023-01-19T04:05:49;18.60;;;8.57;;
61635;SDS011;59438;45.014;39.006;2023-01-19T04:08:15;27.17;;;9.77;;
61635;SDS011;59438;45.014;39.006;2023-01-19T04:10:41;19.85;;;9.13;;
61635;SDS011;59438;45.014;39.006;2023-01-19T04:13:08;18.63;;;8.18;;
61635;SDS011;59438;45.014;39.006;2023-01-19T04:15:34;18.73;;;8.57;;
61635;SDS011;59438;45.014;39.006;2023-01-19T04:18:02;18.35;;;8.07;;
61635;SDS011;59438;45.014;39.006;2023-01-19T04:20:28;20.25;;;8.63;;
61635;SDS011;59438;45.014;39.006;2023-01-19T04:22:57;24.23;;;8.57;;
61635;SDS011;59438;45.014;39.006;2023-01-19T04:25:24;21.25;;;9.20;;
61635;SDS011;59438;45.014;39.006;2023-01-19T04:27:51;21.20;;;9.07;;
61635;SDS011;59438;45.014;39.006;2023-01-19T04:30:17;18.15;;;8.60;;
61635;SDS011;59438;45.014;39.006;2023-01-19T04:32:44;25.65;;;8.35;;
61635;SDS011;59438;45.014;39.006;2023-01-19T04:35:12;22.85;;;9.68;;
61635;SDS011;59438;45.014;39.006;2023-01-19T04:37:39;19.48;;;9.05;;
61635;SDS011;59438;45.014;39.006;2023-01-19T04:40:06;16.75;;;8.00;;
61635;SDS011;59438;45.014;39.006;2023-01-19T04:42:33;23.02;;;9.25;;
61635;SDS011;59438;45.014;39.006;2023-01-19T04:45:00;21.25;;;9.02;;
61635;SDS011;59438;45.014;39.006;2023-01-19T04:47:26;20.73;;;8.85;;
61635;SDS011;59438;45.014;39.006;2023-01-19T04:49:52;20.33;;;9.10;;
61635;SDS011;59438;45.014;39.006;2023-01-19T04:52:20;19.60;;;8.73;;
61635;SDS011;59438;45.014;39.006;2023-01-19T04:54:46;25.88;;;9.60;;
61635;SDS011;59438;45.014;39.006;2023-01-19T04:57:13;23.45;;;9.82;;
61635;SDS011;59438;45.014;39.006;2023-01-19T04:59:39;22.27;;;10.05;;
61635;SDS011;59438;45.014;39.006;2023-01-19T05:02:05;21.88;;;10.10;;
61635;SDS011;59438;45.014;39.006;2023-01-19T05:04:32;30.70;;;10.25;;
61635;SDS011;59438;45.014;39.006;2023-01-19T05:06:58;29.95;;;10.60;;
61635;SDS011;59438;45.014;39.006;2023-01-19T05:09:26;30.40;;;10.27;;
61635;SDS011;59438;45.014;39.006;2023-01-19T05:11:52;26.08;;;10.30;;
61635;SDS011;59438;45.014;39.006;2023-01-19T05:14:19;42.05;;;16.38;;
61635;SDS011;59438;45.014;39.006;2023-01-19T05:16:45;30.58;;;13.93;;
61635;SDS011;59438;45.014;39.006;2023-01-19T05:19:11;38.25;;;15.40;;
61635;SDS011;59438;45.014;39.006;2023-01-19T05:21:38;28.70;;;12.90;;
61635;SDS011;59438;45.014;39.006;2023-01-19T05:24:04;44.45;;;14.35;;
61635;SDS011;59438;45.014;39.006;2023-01-19T05:26:33;29.70;;;11.25;;
61635;SDS011;59438;45.014;39.006;2023-01-19T05:28:59;28.67;;;10.07;;
61635;SDS011;59438;45.014;39.006;2023-01-19T05:31:25;26.83;;;10.63;;
61635;SDS011;59438;45.014;39.006;2023-01-19T05:33:52;23.10;;;9.73;;
61635;SDS011;59438;45.014;39.006;2023-01-19T05:36:18;32.05;;;9.77;;
61635;SDS011;59438;45.014;39.006;2023-01-19T05:38:44;27.85;;;10.05;;
61635;SDS011;59438;45.014;39.006;2023-01-19T05:41:11;22.30;;;9.38;;
61635;SDS011;59438;45.014;39.006;2023-01-19T05:43:38;21.48;;;10.05;;
61635;SDS011;59438;45.014;39.006;2023-01-19T05:46:05;29.60;;;11.80;;
61635;SDS011;59438;45.014;39.006;2023-01-19T05:48:31;23.33;;;11.70;;
61635;SDS011;59438;45.014;39.006;2023-01-19T05:50:58;35.75;;;11.35;;
61635;SDS011;59438;45.014;39.006;2023-01-19T05:53:25;28.95;;;12.10;;
61635;SDS011;59438;45.014;39.006;2023-01-19T05:55:51;29.08;;;11.00;;
61635;SDS011;59438;45.014;39.006;2023-01-19T05:58:18;31.90;;;11.32;;
61635;SDS011;59438;45.014;39.006;2023-01-19T06:00:45;29.73;;;10.75;;
61635;SDS011;59438;45.014;39.006;2023-01-19T06:03:12;26.42;;;10.77;;
61635;SDS011;59438;45.014;39.006;2023-01-19T06:05:38;36.13;;;12.10;;
61635;SDS011;59438;45.014;39.006;2023-01-19T06:08:04;27.00;;;10.40;;
61635;SDS011;59438;45.014;39.006;2023-01-19T06:10:31;28.67;;;11.32;;
61635;SDS011;59438;45.014;39.006;2023-01-19T06:12:57;25.30;;;11.10;;
61635;SDS011;59438;45.014;39.006;2023-01-19T06:15:23;23.23;;;10.90;;
61635;SDS011;59438;45.014;39.006;2023-01-19T06:17:51;23.13;;;10.35;;
61635;SDS011;59438;45.014;39.006;2023-01-19T06:20:18;32.88;;;11.13;;
61635;SDS011;59438;45.014;39.006;2023-01-19T06:22:44;27.90;;;10.43;;
61635;SDS011;59438;45.014;39.006;2023-01-19T06:25:10;23.15;;;8.50;;
61635;SDS011;59438;45.014;39.006;2023-01-19T06:27:37;23.58;;;10.15;;
61635;SDS011;59438;45.014;39.006;2023-01-19T06:30:03;29.08;;;9.13;;
61635;SDS011;59438;45.014;39.006;2023-01-19T06:32:31;22.13;;;9.48;;
61635;SDS011;59438;45.014;39.006;2023-01-19T06:34:58;32.03;;;9.70;;
61635;SDS011;59438;45.014;39.006;2023-01-19T06:37:25;23.50;;;9.27;;
61635;SDS011;59438;45.014;39.006;2023-01-19T06:39:51;16.23;;;8.02;;
61635;SDS011;59438;45.014;39.006;2023-01-19T06:42:17;26.85;;;9.00;;
61635;SDS011;59438;45.014;39.006;2023-01-19T06:44:44;26.85;;;9.68;;
61635;SDS011;59438;45.014;39.006;2023-01-19T06:47:10;25.40;;;9.07;;
61635;SDS011;59438;45.014;39.006;2023-01-19T06:49:36;29.88;;;10.45;;
61635;SDS011;59438;45.014;39.006;2023-01-19T06:52:04;28.05;;;9.60;;
61635;SDS011;59438;45.014;39.006;2023-01-19T06:54:31;25.67;;;9.65;;
61635;SDS011;59438;45.014;39.006;2023-01-19T06:56:57;26.63;;;11.02;;
61635;SDS011;59438;45.014;39.006;2023-01-19T06:59:23;22.92;;;9.32;;
61635;SDS011;59438;45.014;39.006;2023-01-19T07:01:49;28.25;;;9.90;;
61635;SDS011;59438;45.014;39.006;2023-01-19T07:04:16;22.58;;;8.88;;
61635;SDS011;59438;45.014;39.006;2023-01-19T07:06:42;22.40;;;8.77;;
61635;SDS011;59438;45.014;39.006;2023-01-19T07:09:10;18.55;;;8.82;;
61635;SDS011;59438;45.014;39.006;2023-01-19T07:11:36;36.10;;;9.75;;
61635;SDS011;59438;45.014;39.006;2023-01-19T07:14:02;24.58;;;9.43;;
61635;SDS011;59438;45.014;39.006;2023-01-19T07:16:29;22.17;;;8.73;;
61635;SDS011;59438;45.014;39.006;2023-01-19T07:18:55;21.85;;;7.80;;
61635;SDS011;59438;45.014;39.006;2023-01-19T07:21:22;20.27;;;8.00;;
61635;SDS011;59438;45.014;39.006;2023-01-19T07:23:48;22.25;;;9.07;;
61635;SDS011;59438;45.014;39.006;2023-01-19T07:26:16;22.40;;;8.32;;
61635;SDS011;59438;45.014;39.006;2023-01-19T07:28:43;22.25;;;8.80;;
61635;SDS011;59438;45.014;39.006;2023-01-19T07:31:09;19.83;;;8.10;;
61635;SDS011;59438;45.014;39.006;2023-01-19T07:33:36;22.88;;;7.95;;
61635;SDS011;59438;45.014;39.006;2023-01-19T07:36:02;17.85;;;7.03;;
61635;SDS011;59438;45.014;39.006;2023-01-19T07:38:29;21.23;;;7.13;;
61635;SDS011;59438;45.014;39.006;2023-01-19T07:40:58;15.55;;;7.60;;
61635;SDS011;59438;45.014;39.006;2023-01-19T07:43:27;17.75;;;7.07;;
61635;SDS011;59438;45.014;39.006;2023-01-19T07:45:54;16.70;;;6.97;;
61635;SDS011;59438;45.014;39.006;2023-01-19T07:48:21;13.75;;;6.43;;
61635;SDS011;59438;45.014;39.006;2023-01-19T07:50:47;25.95;;;6.65;;
61635;SDS011;59438;45.014;39.006;2023-01-19T07:53:13;12.52;;;5.78;;
61635;SDS011;59438;45.014;39.006;2023-01-19T07:55:39;16.20;;;6.47;;
61635;SDS011;59438;45.014;39.006;2023-01-19T07:58:06;15.32;;;6.35;;
61635;SDS011;59438;45.014;39.006;2023-01-19T08:00:34;12.32;;;6.30;;
61635;SDS011;59438;45.014;39.006;2023-01-19T08:03:02;13.68;;;6.10;;
61635;SDS011;59438;45.014;39.006;2023-01-19T08:05:29;11.25;;;5.68;;
61635;SDS011;59438;45.014;39.006;2023-01-19T08:07:57;11.70;;;5.63;;
61635;SDS011;59438;45.014;39.006;2023-01-19T08:10:24;20.02;;;5.78;;
61635;SDS011;59438;45.014;39.006;2023-01-19T08:12:51;13.68;;;6.40;;
61635;SDS011;59438;45.014;39.006;2023-01-19T08:15:17;13.68;;;6.30;;
61635;SDS011;59438;45.014;39.006;2023-01-19T08:17:45;12.85;;;5.80;;
61635;SDS011;59438;45.014;39.006;2023-01-19T08:20:18;12.20;;;6.32;;
61635;SDS011;59438;45.014;39.006;2023-01-19T08:22:46;16.48;;;9.20;;
61635;SDS011;59438;45.014;39.006;2023-01-19T08:25:12;12.57;;;6.25;;
61635;SDS011;59438;45.014;39.006;2023-01-19T08:27:38;14.65;;;7.07;;
61635;SDS011;59438;45.014;39.006;2023-01-19T08:30:05;19.88;;;4.82;;
61635;SDS011;59438;45.014;39.006;2023-01-19T08:32:32;8.85;;;4.30;;
61635;SDS011;59438;45.014;39.006;2023-01-19T08:35:00;11.52;;;5.78;;
61635;SDS011;59438;45.014;39.006;2023-01-19T08:37:26;8.05;;;4.47;;
61635;SDS011;59438;45.014;39.006;2023-01-19T08:39:53;9.65;;;4.43;;
61635;SDS011;59438;45.014;39.006;2023-01-19T08:42:19;10.05;;;4.40;;
61635;SDS011;59438;45.014;39.006;2023-01-19T08:44:45;8.65;;;4.47;;
61635;SDS011;59438;45.014;39.006;2023-01-19T08:47:12;13.48;;;3.95;;
61635;SDS011;59438;45.014;39.006;2023-01-19T08:49:38;11.50;;;4.35;;
61635;SDS011;59438;45.014;39.006;2023-01-19T08:52:06;8.80;;;4.50;;
61635;SDS011;59438;45.014;39.006;2023-01-19T08:54:32;6.15;;;3.63;;
61635;SDS011;59438;45.014;39.006;2023-01-19T08:56:58;15.15;;;4.30;;
61635;SDS011;59438;45.014;39.006;2023-01-19T08:59:25;11.73;;;4.70;;
61635;SDS011;59438;45.014;39.006;2023-01-19T09:01:51;8.95;;;4.30;;
61635;SDS011;59438;45.014;39.006;2023-01-19T09:04:17;15.70;;;4.57;;
61635;SDS011;59438;45.014;39.006;2023-01-19T09:06:44;11.85;;;4.57;;
61635;SDS011;59438;45.014;39.006;2023-01-19T09:09:11;9.65;;;4.55;;
61635;SDS011;59438;45.014;39.006;2023-01-19T09:11:38;10.02;;;4.10;;
61635;SDS011;59438;45.014;39.006;2023-01-19T09:14:04;10.75;;;4.07;;
61635;SDS011;59438;45.014;39.006;2023-01-19T09:16:30;7.57;;;4.03;;
61635;SDS011;59438;45.014;39.006;2023-01-19T09:18:57;8.07;;;3.70;;
61635;SDS011;59438;45.014;39.006;2023-01-19T09:21:23;10.48;;;3.50;;
61635;SDS011;59438;45.014;39.006;2023-01-19T09:23:50;7.28;;;3.53;;
61635;SDS011;59438;45.014;39.006;2023-01-19T09:26:17;6.35;;;3.13;;
61635;SDS011;59438;45.014;39.006;2023-01-19T09:28:44;8.05;;;3.13;;
61635;SDS011;59438;45.014;39.006;2023-01-19T09:31:10;8.68;;;3.53;;
61635;SDS011;59438;45.014;39.006;2023-01-19T09:33:36;7.93;;;3.50;;
61635;SDS011;59438;45.014;39.006;2023-01-19T09:36:03;8.82;;;3.80;;
61635;SDS011;59438;45.014;39.006;2023-01-19T09:38:29;8.60;;;4.00;;
61635;SDS011;59438;45.014;39.006;2023-01-19T09:40:56;6.95;;;3.58;;
61635;SDS011;59438;45.014;39.006;2023-01-19T09:46:11;8.95;;;4.50;;
61635;SDS011;59438;45.014;39.006;2023-01-19T09:48:44;11.02;;;4.30;;
61635;SDS011;59438;45.014;39.006;2023-01-19T09:51:13;9.10;;;3.88;;
61635;SDS011;59438;45.014;39.006;2023-01-19T09:53:51;10.02;;;4.30;;
61635;SDS011;59438;45.014;39.006;2023-01-19T09:56:21;7.18;;;3.38;;
61635;SDS011;59438;45.014;39.006;2023-01-19T09:58:50;8.35;;;4.10;;
61635;SDS011;59438;45.014;39.006;2023-01-19T10:01:20;16.60;;;4.55;;
61635;SDS011;59438;45.014;39.006;2023-01-19T10:04:02;12.03;;;3.80;;
61635;SDS011;59438;45.014;39.006;2023-01-19T10:06:53;7.88;;;3.60;;
61635;SDS011;59438;45.014;39.006;2023-01-19T10:09:26;14.88;;;3.67;;
61635;SDS011;59438;45.014;39.006;2023-01-19T10:11:59;9.88;;;3.60;;
61635;SDS011;59438;45.014;39.006;2023-01-19T10:14:37;10.20;;;3.70;;
61635;SDS011;59438;45.014;39.006;2023-01-19T10:17:12;9.95;;;4.00;;
61635;SDS011;59438;45.014;39.006;2023-01-19T10:19:46;8.45;;;3.72;;
61635;SDS011;59438;45.014;39.006;2023-01-19T10:22:19;12.65;;;4.00;;
61635;SDS011;59438;45.014;39.006;2023-01-19T10:24:47;11.32;;;3.70;;
61635;SDS011;59438;45.014;39.006;2023-01-19T10:27:19;12.43;;;3.40;;
61635;SDS011;59438;45.014;39.006;2023-01-19T10:29:52;5.32;;;3.08;;
61635;SDS011;59438;45.014;39.006;2023-01-19T10:32:19;8.60;;;3.40;;
61635;SDS011;59438;45.014;39.006;2023-01-19T10:34:48;12.38;;;3.63;;
61635;SDS011;59438;45.014;39.006;2023-01-19T10:37:19;14.45;;;4.28;;
61635;SDS011;59438;45.014;39.006;2023-01-19T10:39:53;8.93;;;3.40;;
61635;SDS011;59438;45.014;39.006;2023-01-19T10:42:21;7.38;;;3.70;;
61635;SDS011;59438;45.014;39.006;2023-01-19T10:44:48;11.40;;;4.50;;
61635;SDS011;59438;45.014;39.006;2023-01-19T10:47:16;8.88;;;3.55;;
61635;SDS011;59438;45.014;39.006;2023-01-19T10:49:45;11.20;;;3.90;;
61635;SDS011;59438;45.014;39.006;2023-01-19T10:52:18;12.05;;;4.25;;
61635;SDS011;59438;45.014;39.006;2023-01-19T10:54:50;17.55;;;4.82;;
61635;SDS011;59438;45.014;39.006;2023-01-19T10:57:20;9.82;;;4.50;;
61635;SDS011;59438;45.014;39.006;2023-01-19T10:59:51;10.02;;;4.68;;
61635;SDS011;59438;45.014;39.006;2023-01-19T11:02:19;19.25;;;4.95;;
61635;SDS011;59438;45.014;39.006;2023-01-19T11:04:47;12.55;;;4.50;;
61635;SDS011;59438;45.014;39.006;2023-01-19T11:07:16;13.35;;;4.40;;
61635;SDS011;59438;45.014;39.006;2023-01-19T11:09:45;11.60;;;4.30;;
61635;SDS011;59438;45.014;39.006;2023-01-19T11:12:15;11.85;;;4.30;;
61635;SDS011;59438;45.014;39.006;2023-01-19T11:14:43;14.50;;;4.38;;
61635;SDS011;59438;45.014;39.006;2023-01-19T11:17:15;12.40;;;4.32;;
61635;SDS011;59438;45.014;39.006;2023-01-19T11:19:55;11.43;;;4.78;;
61635;SDS011;59438;45.014;39.006;2023-01-19T11:22:25;13.48;;;4.32;;
61635;SDS011;59438;45.014;39.006;2023-01-19T11:24:56;15.38;;;4.85;;
61635;SDS011;59438;45.014;39.006;2023-01-19T11:27:24;13.82;;;5.53;;
61635;SDS011;59438;45.014;39.006;2023-01-19T11:29:52;14.30;;;5.72;;
61635;SDS011;59438;45.014;39.006;2023-01-19T11:32:26;14.43;;;5.47;;
61635;SDS011;59438;45.014;39.006;2023-01-19T11:34:52;18.40;;;6.13;;
61635;SDS011;59438;45.014;39.006;2023-01-19T11:37:26;17.50;;;6.05;;
61635;SDS011;59438;45.014;39.006;2023-01-19T11:39:55;13.07;;;5.55;;
61635;SDS011;59438;45.014;39.006;2023-01-19T11:42:23;14.38;;;6.55;;
61635;SDS011;59438;45.014;39.006;2023-01-19T11:44:56;19.73;;;6.10;;
61635;SDS011;59438;45.014;39.006;2023-01-19T11:47:27;13.13;;;5.90;;
61635;SDS011;59438;45.014;39.006;2023-01-19T11:50:00;11.00;;;5.40;;
61635;SDS011;59438;45.014;39.006;2023-01-19T11:54:59;23.52;;;6.15;;
61635;SDS011;59438;45.014;39.006;2023-01-19T11:57:31;14.55;;;5.47;;
61635;SDS011;59438;45.014;39.006;2023-01-19T11:59:58;15.38;;;5.32;;
61635;SDS011;59438;45.014;39.006;2023-01-19T12:02:29;15.25;;;5.93;;
61635;SDS011;59438;45.014;39.006;2023-01-19T12:05:08;15.57;;;6.03;;
61635;SDS011;59438;45.014;39.006;2023-01-19T12:07:39;11.02;;;5.38;;
61635;SDS011;59438;45.014;39.006;2023-01-19T12:10:12;14.65;;;5.97;;
61635;SDS011;59438;45.014;39.006;2023-01-19T12:12:48;13.20;;;5.70;;
61635;SDS011;59438;45.014;39.006;2023-01-19T12:15:18;19.95;;;5.75;;
61635;SDS011;59438;45.014;39.006;2023-01-19T12:17:52;15.68;;;5.88;;
61635;SDS011;59438;45.014;39.006;2023-01-19T12:20:24;17.05;;;6.03;;
61635;SDS011;59438;45.014;39.006;2023-01-19T12:22:55;15.15;;;5.28;;
61635;SDS011;59438;45.014;39.006;2023-01-19T12:25:31;18.30;;;5.97;;
61635;SDS011;59438;45.014;39.006;2023-01-19T12:28:08;19.85;;;6.20;;
61635;SDS011;59438;45.014;39.006;2023-01-19T12:30:39;10.85;;;5.13;;
61635;SDS011;59438;45.014;39.006;2023-01-19T12:36:04;24.55;;;6.53;;
61635;SDS011;59438;45.014;39.006;2023-01-19T12:38:39;16.67;;;5.68;;
61635;SDS011;59438;45.014;39.006;2023-01-19T12:44:13;16.73;;;5.95;;
61635;SDS011;59438;45.014;39.006;2023-01-19T12:46:45;18.92;;;5.95;;
61635;SDS011;59438;45.014;39.006;2023-01-19T12:49:20;16.33;;;5.80;;
61635;SDS011;59438;45.014;39.006;2023-01-19T12:54:58;16.38;;;6.55;;
61635;SDS011;59438;45.014;39.006;2023-01-19T12:57:28;14.98;;;7.45;;
61635;SDS011;59438;45.014;39.006;2023-01-19T12:59:57;19.20;;;8.13;;
61635;SDS011;59438;45.014;39.006;2023-01-19T13:08:19;25.98;;;8.52;;
61635;SDS011;59438;45.014;39.006;2023-01-19T13:10:54;19.90;;;9.30;;
61635;SDS011;59438;45.014;39.006;2023-01-19T13:13:43;21.55;;;9.75;;
61635;SDS011;59438;45.014;39.006;2023-01-19T13:16:44;22.58;;;10.02;;
61635;SDS011;59438;45.014;39.006;2023-01-19T13:19:21;23.63;;;10.30;;
61635;SDS011;59438;45.014;39.006;2023-01-19T13:21:58;25.90;;;10.50;;
61635;SDS011;59438;45.014;39.006;2023-01-19T13:25:04;21.30;;;9.70;;
61635;SDS011;59438;45.014;39.006;2023-01-19T13:27:33;26.02;;;11.13;;
61635;SDS011;59438;45.014;39.006;2023-01-19T13:29:59;27.10;;;10.80;;
61635;SDS011;59438;45.014;39.006;2023-01-19T13:32:26;21.98;;;11.35;;
61635;SDS011;59438;45.014;39.006;2023-01-19T13:34:53;20.88;;;11.35;;
61635;SDS011;59438;45.014;39.006;2023-01-19T13:37:42;26.60;;;11.70;;
61635;SDS011;59438;45.014;39.006;2023-01-19T13:40:14;21.15;;;11.18;;
61635;SDS011;59438;45.014;39.006;2023-01-19T13:42:43;25.38;;;12.18;;
61635;SDS011;59438;45.014;39.006;2023-01-19T13:45:15;23.55;;;12.48;;
61635;SDS011;59438;45.014;39.006;2023-01-19T13:47:50;22.55;;;11.95;;
61635;SDS011;59438;45.014;39.006;2023-01-19T13:50:19;21.10;;;11.48;;
61635;SDS011;59438;45.014;39.006;2023-01-19T13:52:48;22.80;;;11.63;;
61635;SDS011;59438;45.014;39.006;2023-01-19T13:55:15;30.65;;;14.32;;
61635;SDS011;59438;45.014;39.006;2023-01-19T13:57:42;25.35;;;12.57;;
61635;SDS011;59438;45.014;39.006;2023-01-19T14:00:16;23.50;;;12.80;;
61635;SDS011;59438;45.014;39.006;2023-01-19T14:02:55;24.58;;;12.88;;
61635;SDS011;59438;45.014;39.006;2023-01-19T14:05:24;32.83;;;13.50;;
61635;SDS011;59438;45.014;39.006;2023-01-19T14:08:01;28.10;;;13.43;;
61635;SDS011;59438;45.014;39.006;2023-01-19T14:10:37;26.25;;;13.00;;
61635;SDS011;59438;45.014;39.006;2023-01-19T14:13:10;25.92;;;12.98;;
61635;SDS011;59438;45.014;39.006;2023-01-19T14:15:38;26.17;;;12.82;;
61635;SDS011;59438;45.014;39.006;2023-01-19T14:18:21;31.55;;;13.65;;
61635;SDS011;59438;45.014;39.006;2023-01-19T14:20:53;26.73;;;12.85;;
61635;SDS011;59438;45.014;39.006;2023-01-19T14:23:45;26.10;;;13.38;;
61635;SDS011;59438;45.014;39.006;2023-01-19T14:29:15;28.55;;;12.38;;
61635;SDS011;59438;45.014;39.006;2023-01-19T14:31:49;25.27;;;11.52;;
61635;SDS011;59438;45.014;39.006;2023-01-19T14:34:30;26.58;;;12.40;;
61635;SDS011;59438;45.014;39.006;2023-01-19T14:36:57;24.67;;;12.18;;
61635;SDS011;59438;45.014;39.006;2023-01-19T14:39:27;28.40;;;12.43;;
61635;SDS011;59438;45.014;39.006;2023-01-19T14:41:56;27.95;;;13.00;;
61635;SDS011;59438;45.014;39.006;2023-01-19T14:44:25;23.83;;;13.45;;
61635;SDS011;59438;45.014;39.006;2023-01-19T14:49:23;27.17;;;13.05;;
61635;SDS011;59438;45.014;39.006;2023-01-19T14:51:58;26.45;;;12.65;;
61635;SDS011;59438;45.014;39.006;2023-01-19T14:54:30;32.25;;;14.55;;